Cold Bay Airport Cold Bay US
ICAO: PACD
IATA:
Category: Medium
Scheduled Services:

Elevation: 96 ft
TransAlt. 18000 ft.

Airport Communications:
ASOS:135.75
ANCHORAGE CNTR:118.5
CTAF:123.6
RDO:123.6
KENAI RDO:123.6

PACD Zoom In..

If you have problems with the map follow the link
https://www.worldairports.se/pages/airport.php?
ICAO=PACD

Runways:

(A) RW 08 length 6235 ft width 150 ft
---- / hdg 83

(B) RW 15 length 10180 ft width 150 ft
ILS 110.30 / hdg 146

(C) RW 26 length 6235 ft width 150 ft
---- / hdg 263

(D) RW 33 length 10180 ft width 150 ft
---- / hdg 326

Location; PACD
Day. 08 / Time. 05.53 Zulu
* Altimeter: 29.14
* Temperature: -01° c. -30.2°f.
* Wind from: VRB° Speed 04 kn.
Dewpoint: -02° c.
Visibility: 10 Statute Miles.
Clouds: Clear (automated report).

PACD 080553Z AUTO VRB04KT 10SM CLR M01/M02 A2914 RMK AO2 SLP868 T10061022 10033 21017 51028 TSNO $


Wind From VRB°
Speed 04 kn.

 
 
jpsmedia worldairports.se 2019   terms of use